Etusivu
METAR-TAF:

METAR-TAF

Lentoasemat :

Guernsey,

Leveyspiiri: 49-26N, Pituuspiiri: 002-36W, korkeus merenpinnasta: 102 m

Tämänhetkinen sää

Tämä raportti tehtiin 20 minuuttia sitten, kello 18.50 UTC
Tuuli 4 kn lounaasta, vaihdellen etelän/lounaan ja lännen välillä
Lämpötila 9°C
Kosteus 87%
Ilmanpaine 1017 hPa
Näkyvyys 10 km tai enemmän
Muutamia pilviä 2200 ft:n korkeudessa

METAR: EGJB 261850Z 23004KT 200V270 9999 FEW022 09/07 Q1017

Aika: 20:10 (19:10 UTC)

Sääennuste

Tämä raportti tehtiin 2 tuntia ja 14 minuuttia sitten, kello 16.56 UTC
Ennuste voimassa 26. päivästä klo 18 UTC - 27. päivään klo 03 UTC
Tuuli 6 kn lännestä
Näkyvyys 10 km tai enemmän
Muutamia pilviä 1500 ft:n korkeudessa
Hajanaisia pilviä 4000 ft:n korkeudessa
Tulossa
26. päivästä klo 22 UTC - 26. päivään klo 24 UTC
Tuuli 8 kn kaakosta

TAF: EGJB 261656Z 2618/2703 27006KT 9999 FEW015 SCT040 BECMG 2622/2624 14008KT

Säähavainnot ja -ennusteet yli 4000 lentoasemalta (METAR- ja TAF-raportit).

Käytössä olevat sääasemat on merkitty karttaan keltaisilla ja punaisilla pisteillä.

Aseta hiiri pisteen päälle nähdäksesi sääaseman nimen.

Klikkaa sitten nähdäksesi säähavainnot ja -ennusteet.

Kartan vaihtaminen: klikkaa mustalla rastilla varustettuja vihreitä pisteitä, niin voit zoomata sisään; viivalla varustettua vihreää pistettä, niin voit zoomata ulos tai vihreitä nuolia, niin pääset viereisille kartoille.


METAR-TAF: